Airfield :
LOGIN :

Register | Disclaimer

   EN    FR    IT 

 










Legend :    VFR   Marginal VFR   IFR   Intensive IFR   Very Intensive IFR
Visi :
Ceiling :
>= 8 km
>= 3000ft
5 to 8 km
1000 to 3000 ft
1500m to 5 km
500 to 1000 ft
800 to 1500m
200 to 500 ft
< 800m
< 200 ft
Symbols :   Thunderstorms  Fog  Heavy snow  Heavy precipitations  Wind > 20 kt
SIGMETs :     Misc.  Thunderstorms  Icing  Turbulence  Mountain Waves  Volcanic Ashes






- Airport Elevation : 82 ft
- IATA code : AAR


EKAH - Aarhus Tirstrup

CURRENT METAR :
  • 262120Z AUTO 02011KT 9999NDV -SHRA BKN012/// 16/15 Q1002

EXPIRED METARs :
  • 262050Z AUTO 03010KT 9999NDV -SHRA OVC012/// 16/15 Q1002
  • 262020Z AUTO 03012KT 9999NDV OVC012/// 16/14 Q1001
  • 261950Z AUTO 03011KT 9999NDV OVC012/// 16/14 Q1001
  • 261920Z AUTO 02012KT 9999NDV BKN018/// 16/14 Q1001
  • 261850Z AUTO 02011KT 9999NDV OVC022/// 16/14 Q1001

TAF AMD TAF EKAH
Valid from the 26 at 19:00 until the 27 at 18:00 UTC


261954Z 2619/2718 03010KT 9999 BKN020
TEMPO 2620/2622 BKN012
TEMPO 2622/2709 4000 BR BKN012



MET'MAP, your aeronautical weather chart ! - Copyright ORBIFLY December 2007 - Disclaimer

ORBIFLY MET'MAP TEAM :

Programming & Development : Alexandra Zaïnal
Concept & original design : Baudouin d'Aumeries
Assistance for programming : Marc-Olivier Méhu
Technical & hardware support : Manuel Goepfert

Contact : metmap@orbifly.com




SOURCES & CREDITS :

   NOAA